createdAt,value
2022-11-16T00:03:17.542Z,26.70
2022-11-16T00:08:21.244Z,22.60
2022-11-16T00:13:24.867Z,24.80
2022-11-16T00:18:30.866Z,21.00
2022-11-16T00:23:42.824Z,25.40
2022-11-16T00:28:52.829Z,21.10
2022-11-16T00:33:58.643Z,22.20
2022-11-16T00:39:08.462Z,23.90
2022-11-16T00:44:15.158Z,24.80
2022-11-16T00:49:23.697Z,19.00
2022-11-16T00:54:27.625Z,24.20
2022-11-16T00:59:32.783Z,20.60
2022-11-16T01:04:40.712Z,24.70
2022-11-16T01:09:46.064Z,22.40
2022-11-16T01:14:59.645Z,21.30
2022-11-16T01:20:12.143Z,26.00
2022-11-16T01:25:16.684Z,21.50
2022-11-16T01:30:24.199Z,20.20
2022-11-16T01:35:44.205Z,21.50
2022-11-16T01:40:49.562Z,22.40
2022-11-16T01:45:53.804Z,21.60
2022-11-16T01:51:02.366Z,19.90
2022-11-16T01:56:08.567Z,20.30
2022-11-16T02:01:32.563Z,20.60
2022-11-16T02:06:54.479Z,18.90
2022-11-16T02:12:07.724Z,19.40
2022-11-16T02:17:46.622Z,17.80
2022-11-16T02:23:12.847Z,21.40
2022-11-16T02:28:33.514Z,19.80
2022-11-16T02:33:41.127Z,18.50
2022-11-16T02:39:06.769Z,20.20
2022-11-16T02:44:24.950Z,19.80
2022-11-16T02:49:35.337Z,20.20
2022-11-16T02:54:39.263Z,16.90
2022-11-16T02:59:57.314Z,19.40
2022-11-16T03:05:09.941Z,18.60
2022-11-16T03:10:39.349Z,18.00
2022-11-16T03:15:44.508Z,18.00
2022-11-16T03:20:53.155Z,19.00
2022-11-16T03:25:58.433Z,17.80
2022-11-16T03:31:07.556Z,17.70
2022-11-16T03:36:33.954Z,19.80
2022-11-16T03:41:41.876Z,17.00
2022-11-16T03:46:47.853Z,17.20
2022-11-16T03:51:52.338Z,16.20
2022-11-16T03:56:56.396Z,16.70
2022-11-16T04:02:00.199Z,16.10
2022-11-16T04:07:22.492Z,15.70
2022-11-16T04:12:49.511Z,14.60
2022-11-16T04:18:11.854Z,15.90
2022-11-16T04:23:35.332Z,15.80
2022-11-16T04:28:40.548Z,15.50
2022-11-16T04:34:03.556Z,14.30
2022-11-16T04:39:07.592Z,15.50
2022-11-16T04:44:11.620Z,17.70
2022-11-16T04:49:15.551Z,15.10
2022-11-16T04:54:20.402Z,15.10
2022-11-16T04:59:24.332Z,14.30
2022-11-16T05:04:28.632Z,15.30
2022-11-16T05:09:32.295Z,15.10
2022-11-16T05:14:36.332Z,16.10
2022-11-16T05:19:58.984Z,16.00
2022-11-16T05:25:04.046Z,15.40
2022-11-16T05:30:09.303Z,14.80
2022-11-16T05:35:13.041Z,15.90
2022-11-16T05:40:17.060Z,14.00
2022-11-16T05:50:32.702Z,16.70
2022-11-16T05:55:41.032Z,14.00
2022-11-16T06:00:47.927Z,15.10
2022-11-16T06:05:55.821Z,13.50
2022-11-16T06:11:05.410Z,15.00
2022-11-16T06:16:09.544Z,13.60
2022-11-16T06:21:16.216Z,16.50
2022-11-16T06:26:19.857Z,14.70
2022-11-16T06:31:23.998Z,13.30
2022-11-16T06:36:27.822Z,14.40
2022-11-16T06:41:33.159Z,16.40
2022-11-16T06:46:37.624Z,13.00
2022-11-16T06:51:41.350Z,13.40
2022-11-16T06:56:45.897Z,14.80
2022-11-16T07:01:49.868Z,15.60
2022-11-16T07:06:54.981Z,19.40
2022-11-16T07:11:58.915Z,17.40
2022-11-16T07:17:09.475Z,16.00
2022-11-16T07:22:21.982Z,16.40
2022-11-16T07:27:29.429Z,16.60
2022-11-16T07:32:33.257Z,18.30
2022-11-16T07:37:36.983Z,16.80
2022-11-16T07:42:42.347Z,21.50
2022-11-16T07:47:57.907Z,14.70
2022-11-16T07:53:31.549Z,19.60
2022-11-16T07:58:37.195Z,20.10
2022-11-16T08:03:43.574Z,24.70
2022-11-16T08:08:47.434Z,24.60
2022-11-16T08:13:51.361Z,16.70
2022-11-16T08:18:55.708Z,17.90
